Time;durP1;ratioP1;P1;durP2;ratioP2;P2;SDS_P1;SDS_P2;PMS_P1;PMS_P2;Temp;Humidity;BMP_temperature;BMP_pressure;BME280_temperature;BME280_humidity;BME280_pressure;Samples;Min_cycle;Max_cycle;Signal;HPM_P1;HPM_P2
2024/02/25 00:02:44;;;;;;;0.80;0.60;;;;;;;3.27;100.00;97440.91;15287155;19;20014;-57
2024/02/25 00:08:09;;;;;;;0.80;0.70;;;;;;;3.19;100.00;97448.75;15283749;19;20382;-55
2024/02/25 00:13:36;;;;;;;1.33;0.73;;;;;;;3.21;100.00;97457.47;15285011;19;20487;-55
2024/02/25 00:18:54;;;;;;;1.20;0.75;;;;;;;3.17;100.00;97464.03;15280906;19;20031;-58
2024/02/25 00:24:22;;;;;;;0.88;0.70;;;;;;;3.08;100.00;97450.56;15285190;19;20014;-58
2024/02/25 00:29:49;;;;;;;0.70;0.70;;;;;;;3.01;100.00;97451.25;15281244;19;20496;-54
2024/02/25 00:35:14;;;;;;;2.00;0.68;;;;;;;2.91;100.00;97460.06;15284549;19;20014;-58
2024/02/25 00:40:38;;;;;;;1.67;0.60;;;;;;;2.83;100.00;97469.69;15288236;19;20011;-57
2024/02/25 00:46:20;;;;;;;0.73;0.55;;;;;;;2.77;100.00;97473.75;15289117;19;20018;-54
2024/02/25 00:51:45;;;;;;;0.97;0.70;;;;;;;2.85;100.00;97478.41;15276491;19;20516;-54
2024/02/25 00:57:16;;;;;;;0.60;0.40;;;;;;;2.91;100.00;97469.84;15285600;19;20026;-56
2024/02/25 01:02:45;;;;;;;0.57;0.57;;;;;;;3.00;100.00;97462.88;15280599;19;20082;-57
2024/02/25 01:08:10;;;;;;;0.80;0.55;;;;;;;3.00;100.00;97466.38;15278225;19;20089;-54
2024/02/25 01:13:35;;;;;;;0.70;0.50;;;;;;;2.94;100.00;97474.91;15277951;19;20010;-56
2024/02/25 01:19:02;;;;;;;2.47;0.50;;;;;;;2.90;100.00;97469.03;15300861;19;20074;-58
2024/02/25 01:24:27;;;;;;;0.40;0.40;;;;;;;2.86;100.00;97461.47;15298896;19;20042;-56
2024/02/25 01:29:52;;;;;;;0.30;0.30;;;;;;;2.81;100.00;97464.53;15293599;19;20041;-57
2024/02/25 01:35:20;;;;;;;0.38;0.38;;;;;;;2.76;100.00;97459.59;15298125;19;20467;-58
2024/02/25 01:40:39;;;;;;;0.60;0.50;;;;;;;2.71;100.00;97453.84;15292657;19;20035;-56
2024/02/25 01:46:03;;;;;;;0.30;0.30;;;;;;;2.66;100.00;97453.41;15302737;19;20015;-57
2024/02/25 01:51:31;;;;;;;1.05;0.47;;;;;;;2.59;100.00;97446.97;15294082;19;20386;-54
2024/02/25 01:56:56;;;;;;;0.52;0.50;;;;;;;2.50;100.00;97450.44;15289586;19;20109;-56
2024/02/25 02:02:21;;;;;;;0.55;0.43;;;;;;;2.41;100.00;97444.91;15294074;19;20094;-54
2024/02/25 02:07:49;;;;;;;0.47;0.47;;;;;;;2.36;100.00;97449.81;15292525;19;20018;-58
2024/02/25 02:13:15;;;;;;;0.40;0.40;;;;;;;2.31;100.00;97450.22;15291021;19;20026;-59
2024/02/25 02:18:39;;;;;;;0.57;0.55;;;;;;;2.27;100.00;97446.13;15300085;19;20042;-58
2024/02/25 02:24:07;;;;;;;0.40;0.40;;;;;;;2.21;100.00;97443.16;15291683;19;20093;-59
2024/02/25 02:29:32;;;;;;;0.38;0.38;;;;;;;2.15;100.00;97439.22;15285474;19;20035;-55
2024/02/25 02:34:57;;;;;;;0.50;0.50;;;;;;;2.06;100.00;97424.91;15292261;19;20049;-59
2024/02/25 02:40:25;;;;;;;0.50;0.50;;;;;;;1.95;100.00;97422.34;15288183;19;20022;-56
2024/02/25 02:45:50;;;;;;;0.40;0.40;;;;;;;1.84;100.00;97420.63;15295300;19;20018;-56
2024/02/25 02:51:16;;;;;;;0.75;0.55;;;;;;;1.76;100.00;97418.59;15290914;19;20042;-57
2024/02/25 02:56:50;;;;;;;2.38;0.63;;;;;;;1.72;100.00;97419.81;15290538;19;20031;-54
2024/02/25 03:02:15;;;;;;;1.10;0.45;;;;;;;1.67;100.00;97422.06;15287847;19;20022;-55
2024/02/25 03:07:40;;;;;;;0.43;0.40;;;;;;;1.62;100.00;97427.75;15297161;19;20035;-57
2024/02/25 03:13:08;;;;;;;1.05;0.50;;;;;;;1.54;100.00;97423.09;15285920;19;20015;-55
2024/02/25 03:18:32;;;;;;;2.17;0.35;;;;;;;1.51;100.00;97415.38;15292759;19;20496;-55
2024/02/25 03:23:58;;;;;;;0.40;0.40;;;;;;;1.48;100.00;97414.78;15276585;19;20367;-55
2024/02/25 03:29:25;;;;;;;0.77;0.40;;;;;;;1.48;100.00;97420.94;15290124;19;20014;-54
2024/02/25 03:34:50;;;;;;;1.17;0.50;;;;;;;1.42;100.00;97421.47;15284864;19;20356;-55
2024/02/25 03:40:16;;;;;;;0.85;0.55;;;;;;;1.42;100.00;97423.25;15283475;19;20038;-57
2024/02/25 03:45:44;;;;;;;0.55;0.52;;;;;;;1.52;100.00;97416.22;15288770;19;20022;-56
2024/02/25 03:51:09;;;;;;;0.70;0.40;;;;;;;1.63;100.00;97417.97;15281296;19;20085;-59
2024/02/25 03:56:40;;;;;;;0.82;0.50;;;;;;;1.64;100.00;97427.59;15280893;19;20037;-55
2024/02/25 04:02:08;;;;;;;0.52;0.52;;;;;;;1.46;100.00;97432.66;15283809;19;20031;-55
2024/02/25 04:07:33;;;;;;;0.60;0.60;;;;;;;1.33;100.00;97422.22;15285429;19;20025;-59
2024/02/25 04:12:58;;;;;;;1.25;0.60;;;;;;;1.25;100.00;97422.00;15288277;19;20022;-54
2024/02/25 04:18:25;;;;;;;0.40;0.40;;;;;;;1.26;100.00;97418.38;15288721;19;20019;-56
2024/02/25 04:23:50;;;;;;;0.50;0.50;;;;;;;1.25;100.00;97412.25;15283502;19;20078;-55
2024/02/25 04:29:15;;;;;;;0.70;0.70;;;;;;;1.23;100.00;97411.53;15281695;19;20042;-54
2024/02/25 04:34:44;;;;;;;0.60;0.60;;;;;;;1.16;100.00;97399.75;15287170;19;20011;-56
2024/02/25 04:40:10;;;;;;;0.68;0.60;;;;;;;1.12;100.00;97408.94;15282784;19;20369;-58
2024/02/25 04:45:35;;;;;;;0.60;0.60;;;;;;;1.12;100.00;97408.94;15286509;19;20024;-56
2024/02/25 04:51:02;;;;;;;0.70;0.60;;;;;;;1.11;100.00;97397.50;15297650;19;20018;-55
2024/02/25 04:56:35;;;;;;;0.63;0.60;;;;;;;1.09;100.00;97394.13;15312650;19;20022;-54
2024/02/25 05:02:01;;;;;;;0.80;0.60;;;;;;;1.03;100.00;97392.81;15313041;19;20050;-53
2024/02/25 05:07:28;;;;;;;0.75;0.65;;;;;;;1.01;100.00;97391.22;15308489;19;20022;-53
2024/02/25 05:12:53;;;;;;;1.10;0.73;;;;;;;0.92;100.00;97393.69;15313518;19;20590;-54
2024/02/25 05:18:17;;;;;;;0.80;0.80;;;;;;;0.88;100.00;97392.25;15316693;19;20035;-53
2024/02/25 05:23:45;;;;;;;0.77;0.77;;;;;;;0.89;100.00;97393.09;15308283;19;20022;-53
2024/02/25 05:29:09;;;;;;;0.90;0.90;;;;;;;0.89;100.00;97399.22;15305433;19;20813;-52
2024/02/25 05:34:40;;;;;;;1.25;0.98;;;;;;;0.88;100.00;97400.19;15308763;19;20077;-55
2024/02/25 05:40:11;;;;;;;3.83;1.00;;;;;;;0.87;100.00;97395.88;15308540;19;20101;-52
2024/02/25 05:45:36;;;;;;;1.10;1.00;;;;;;;0.88;100.00;97392.25;15315658;19;20020;-55
2024/02/25 05:51:00;;;;;;;1.10;1.00;;;;;;;0.86;100.00;97388.91;15312897;19;20030;-57
2024/02/25 05:56:28;;;;;;;1.20;0.88;;;;;;;0.85;100.00;97386.34;15313131;19;20022;-54
2024/02/25 06:01:52;;;;;;;1.33;1.10;;;;;;;0.82;100.00;97391.94;15302646;19;20038;-53
2024/02/25 06:07:17;;;;;;;1.20;1.10;;;;;;;0.81;100.00;97395.53;15293393;19;20028;-53
2024/02/25 06:12:52;;;;;;;1.02;1.00;;;;;;;0.79;100.00;97397.47;15284359;19;20749;-56
2024/02/25 06:18:18;;;;;;;0.95;0.90;;;;;;;0.77;100.00;97408.19;15293777;19;20014;-53
2024/02/25 06:23:42;;;;;;;2.83;1.20;;;;;;;0.76;100.00;97403.88;15291234;19;20035;-54
2024/02/25 06:29:10;;;;;;;1.40;1.08;;;;;;;0.74;100.00;97405.81;15294894;19;20025;-56
2024/02/25 06:34:35;;;;;;;1.95;1.00;;;;;;;0.72;100.00;97402.44;15299567;19;20018;-56
2024/02/25 06:40:00;;;;;;;1.30;1.20;;;;;;;0.70;100.00;97407.88;15294013;19;20015;-56
2024/02/25 06:45:26;;;;;;;2.40;1.35;;;;;;;0.71;100.00;97417.47;15293426;19;20085;-56
2024/02/25 06:50:51;;;;;;;1.52;1.10;;;;;;;0.72;100.00;97405.09;15295151;19;20388;-59
2024/02/25 06:56:15;;;;;;;1.08;1.00;;;;;;;0.74;100.00;97411.94;15293007;19;20367;-54
2024/02/25 07:01:43;;;;;;;3.55;1.30;;;;;;;0.78;100.00;97412.53;15290419;19;20018;-54
2024/02/25 07:07:08;;;;;;;1.50;1.20;;;;;;;0.78;100.00;97412.53;15294696;19;20018;-58
2024/02/25 07:12:33;;;;;;;1.20;1.10;;;;;;;0.85;100.00;97413.72;15292913;19;20046;-56
2024/02/25 07:18:00;;;;;;;1.33;1.20;;;;;;;0.95;100.00;97408.50;15283396;19;20018;-56
2024/02/25 07:23:25;;;;;;;1.20;1.10;;;;;;;1.06;100.00;97411.09;15290553;19;20023;-58
2024/02/25 07:28:51;;;;;;;1.30;1.20;;;;;;;1.17;100.00;97418.19;15295038;19;20018;-58
2024/02/25 07:34:19;;;;;;;2.53;1.30;;;;;;;1.26;100.00;97411.28;15289213;19;20448;-59
2024/02/25 07:39:46;;;;;;;1.52;1.00;;;;;;;1.38;100.00;97402.31;15287299;19;20018;-57
2024/02/25 07:45:11;;;;;;;1.85;1.20;;;;;;;1.50;100.00;97397.75;15289209;19;20022;-56
2024/02/25 07:50:39;;;;;;;1.35;1.20;;;;;;;1.65;100.00;97398.25;15287124;19;20021;-60
2024/02/25 07:56:03;;;;;;;1.17;1.08;;;;;;;1.79;100.00;97402.41;15290636;19;20503;-58
2024/02/25 08:01:29;;;;;;;1.30;1.17;;;;;;;1.96;100.00;97395.66;15288943;19;20416;-58
2024/02/25 08:06:56;;;;;;;1.52;1.40;;;;;;;2.17;100.00;97397.41;15291882;19;20007;-58
2024/02/25 08:12:20;;;;;;;1.98;1.40;;;;;;;2.47;100.00;97396.56;15288163;19;20093;-60
2024/02/25 08:17:46;;;;;;;1.98;1.60;;;;;;;2.82;100.00;97399.72;15287666;19;20010;-57
2024/02/25 08:23:14;;;;;;;1.88;1.58;;;;;;;3.08;100.00;97399.16;15278747;19;20019;-55
2024/02/25 08:28:40;;;;;;;1.80;1.70;;;;;;;3.29;100.00;97385.72;15288446;19;20015;-52
2024/02/25 08:34:05;;;;;;;1.92;1.60;;;;;;;3.47;100.00;97388.50;15283006;19;20014;-56
2024/02/25 08:39:32;;;;;;;2.47;1.50;;;;;;;3.61;100.00;97375.75;15287621;19;20078;-54
2024/02/25 08:44:58;;;;;;;1.85;1.38;;;;;;;3.74;100.00;97370.94;15278478;19;20026;-57
2024/02/25 08:50:22;;;;;;;3.05;1.50;;;;;;;4.03;100.00;97371.84;15286586;19;20015;-56
2024/02/25 08:55:57;;;;;;;1.30;1.20;;;;;;;4.29;100.00;97359.50;15283975;19;20039;-56
2024/02/25 09:01:21;;;;;;;2.75;1.30;;;;;;;4.61;100.00;97355.56;15288607;19;20775;-53
2024/02/25 09:06:46;;;;;;;1.60;1.50;;;;;;;4.90;100.00;97338.50;15283917;19;20402;-57
2024/02/25 09:12:13;;;;;;;1.40;1.20;;;;;;;5.28;100.00;97330.34;15287607;19;20382;-57
2024/02/25 09:17:38;;;;;;;1.63;1.20;;;;;;;5.72;100.00;97332.13;15283709;19;20043;-56
2024/02/25 09:23:04;;;;;;;2.08;1.45;;;;;;;6.08;100.00;97326.66;15281650;19;20539;-56
2024/02/25 09:28:32;;;;;;;1.45;1.35;;;;;;;6.33;100.00;97326.78;15280846;19;20029;-56
2024/02/25 09:33:58;;;;;;;1.92;1.40;;;;;;;6.59;100.00;97317.84;15285278;19;20466;-58
2024/02/25 09:39:23;;;;;;;2.42;1.30;;;;;;;6.83;100.00;97302.84;15296561;19;20749;-54
2024/02/25 09:44:53;;;;;;;1.30;1.00;;;;;;;7.09;100.00;97306.22;15302811;19;20354;-56
2024/02/25 09:50:20;;;;;;;1.40;1.20;;;;;;;7.32;100.00;97297.50;15302063;19;20035;-55
2024/02/25 09:55:46;;;;;;;0.80;0.80;;;;;;;7.51;100.00;97280.25;15299026;19;20271;-54
2024/02/25 10:01:14;;;;;;;1.38;0.82;;;;;;;7.71;100.00;97274.50;15293010;19;20062;-55
2024/02/25 10:06:39;;;;;;;1.05;0.70;;;;;;;7.90;100.00;97275.94;15301671;19;20034;-55
2024/02/25 10:12:06;;;;;;;0.85;0.73;;;;;;;8.12;100.00;97281.56;15296961;19;20502;-53
2024/02/25 10:17:33;;;;;;;2.03;0.90;;;;;;;8.38;100.00;97269.72;15298000;19;20014;-55
2024/02/25 10:23:14;;;;;;;1.55;0.80;;;;;;;8.60;100.00;97257.34;15297708;19;20086;-53
2024/02/25 10:28:38;;;;;;;0.57;0.57;;;;;;;8.78;100.00;97247.19;15305582;19;20010;-60
2024/02/25 10:34:09;;;;;;;0.85;0.60;;;;;;;8.92;100.00;97250.94;15276911;19;20022;-48
2024/02/25 10:39:35;;;;;;;0.93;0.60;;;;;;;8.89;100.00;97250.47;15294916;19;20021;-49
2024/02/25 10:45:02;;;;;;;0.40;0.40;;;;;;;8.83;100.00;97227.84;15299200;19;20499;-47
2024/02/25 10:50:31;;;;;;;1.08;0.82;;;;;;;8.82;100.00;97228.84;15298090;19;20454;-48
2024/02/25 10:55:57;;;;;;;1.05;0.70;;;;;;;8.81;100.00;97221.81;15297995;19;20010;-48
2024/02/25 11:01:24;;;;;;;0.45;0.45;;;;;;;8.87;100.00;97214.88;15297674;19;20097;-48
2024/02/25 11:06:52;;;;;;;0.40;0.38;;;;;;;8.96;100.00;97211.09;15294011;19;20071;-48
2024/02/25 11:12:22;;;;;;;1.35;0.50;;;;;;;9.02;100.00;97212.22;15297818;19;20467;-49
2024/02/25 11:17:48;;;;;;;0.43;0.20;;;;;;;9.14;100.00;97204.59;15302260;19;20019;-49
2024/02/25 11:23:19;;;;;;;0.47;0.40;;;;;;;9.33;100.00;97211.28;15298769;19;20014;-50
2024/02/25 11:28:44;;;;;;;0.43;0.35;;;;;;;9.41;100.00;97200.44;15299081;19;20011;-51
2024/02/25 11:34:15;;;;;;;0.40;0.40;;;;;;;9.36;100.00;97192.09;15297858;19;20018;-51
2024/02/25 11:39:42;;;;;;;0.87;0.37;;;;;;;9.48;100.00;97189.81;15295705;19;20898;-49
2024/02/25 11:45:07;;;;;;;0.70;0.43;;;;;;;9.76;100.00;97176.53;15299223;19;20025;-48
2024/02/25 11:50:32;;;;;;;0.30;0.30;;;;;;;10.00;100.00;97174.56;15294821;19;20085;-48
2024/02/25 11:56:00;;;;;;;0.45;0.40;;;;;;;9.95;100.00;97175.13;15294597;19;20018;-49
2024/02/25 12:01:24;;;;;;;0.32;0.30;;;;;;;9.77;100.00;97171.97;15292736;19;20029;-48
2024/02/25 12:06:50;;;;;;;0.35;0.35;;;;;;;9.73;100.00;97171.53;15288683;19;20014;-48
2024/02/25 12:12:17;;;;;;;1.48;0.40;;;;;;;9.66;100.00;97162.53;15292090;19;20420;-49
2024/02/25 12:17:42;;;;;;;1.10;0.50;;;;;;;9.52;100.00;97164.22;15292395;19;20024;-53
2024/02/25 12:23:10;;;;;;;2.85;0.43;;;;;;;9.44;100.00;97170.53;15291505;19;20054;-49
2024/02/25 12:28:37;;;;;;;0.60;0.40;;;;;;;9.46;100.00;97160.44;15035522;19;5001485;-50
2024/02/25 12:34:10;;;;;;;0.90;0.60;;;;;;;9.55;100.00;97164.69;15288185;19;20109;-52
2024/02/25 12:39:41;;;;;;;0.68;0.38;;;;;;;9.67;100.00;97169.59;15282879;19;20094;-50
2024/02/25 12:45:09;;;;;;;0.30;0.30;;;;;;;9.74;100.00;97167.81;15291925;19;20844;-51
2024/02/25 12:50:33;;;;;;;0.55;0.52;;;;;;;9.80;100.00;97166.22;15291207;19;20093;-49
2024/02/25 12:55:58;;;;;;;0.40;0.40;;;;;;;9.75;100.00;97156.03;15292167;19;20015;-48
2024/02/25 13:01:25;;;;;;;0.40;0.40;;;;;;;9.70;100.00;97150.41;15288980;19;20361;-50
2024/02/25 13:06:53;;;;;;;0.40;0.40;;;;;;;9.72;100.00;97142.94;15286019;19;20017;-51
2024/02/25 13:12:18;;;;;;;0.40;0.40;;;;;;;9.74;100.00;97146.28;15290393;19;20275;-50
2024/02/25 13:17:46;;;;;;;0.57;0.40;;;;;;;9.81;100.00;97139.16;15303199;19;20029;-51
2024/02/25 13:23:12;;;;;;;0.40;0.38;;;;;;;9.99;100.00;97141.44;15301243;19;20021;-52
2024/02/25 13:28:36;;;;;;;0.45;0.40;;;;;;;10.38;100.00;97136.72;15301306;19;20021;-50
2024/02/25 13:34:10;;;;;;;0.55;0.35;;;;;;;10.50;100.00;97147.78;15300149;19;20094;-50
2024/02/25 13:39:35;;;;;;;0.40;0.30;;;;;;;10.57;100.00;97143.31;15297923;19;20357;-49
2024/02/25 13:45:00;;;;;;;0.30;0.30;;;;;;;10.71;100.00;97144.25;15298098;19;20020;-50
2024/02/25 13:50:27;;;;;;;1.65;0.50;;;;;;;10.85;100.00;97155.16;15302266;19;20026;-50
2024/02/25 13:55:53;;;;;;;0.30;0.20;;;;;;;10.70;100.00;97155.25;15303597;19;20037;-49
2024/02/25 14:01:18;;;;;;;0.28;0.28;;;;;;;10.81;100.00;97148.47;15300892;19;20086;-50
2024/02/25 14:06:46;;;;;;;0.40;0.30;;;;;;;11.04;100.00;97146.38;15046198;19;5001727;-49
2024/02/25 14:12:12;;;;;;;0.57;0.30;;;;;;;10.98;100.00;97154.41;15299415;19;20086;-51
2024/02/25 14:17:44;;;;;;;0.30;0.20;;;;;;;10.77;100.00;97154.25;15297092;19;20014;-52
2024/02/25 14:23:12;;;;;;;0.28;0.28;;;;;;;10.77;100.00;97137.25;15295948;19;20019;-49
2024/02/25 14:28:37;;;;;;;0.68;0.30;;;;;;;10.97;100.00;97144.66;15296060;19;20014;-49
2024/02/25 14:34:08;;;;;;;0.20;0.20;;;;;;;10.47;100.00;97145.47;15292963;19;20022;-49
2024/02/25 14:39:35;;;;;;;0.40;0.20;;;;;;;10.03;100.00;97140.03;15296678;19;20023;-49
2024/02/25 14:45:12;;;;;;;0.32;0.20;;;;;;;9.77;100.00;97147.78;15293429;19;20022;-52
2024/02/25 14:50:36;;;;;;;0.30;0.30;;;;;;;9.90;100.00;97147.94;15292829;19;20025;-49
2024/02/25 14:56:05;;;;;;;5.40;2.33;;;;;;;10.25;100.00;97144.63;15295572;19;20025;-49
2024/02/25 15:01:30;;;;;;;4.22;2.58;;;;;;;10.12;100.00;97147.97;15290997;19;20493;-52
2024/02/25 15:06:55;;;;;;;0.50;0.50;;;;;;;10.05;100.00;97141.69;15292002;19;20022;-47
2024/02/25 15:12:23;;;;;;;0.25;0.25;;;;;;;9.81;100.00;97141.84;15290460;19;20680;-52
2024/02/25 15:17:44;;;;;;;0.25;0.25;;;;;;;9.56;100.00;97141.31;15296670;19;20018;-50
2024/02/25 15:23:08;;;;;;;1.38;0.93;;;;;;;9.60;100.00;97147.13;15289853;19;20029;-50
2024/02/25 15:28:35;;;;;;;0.52;0.40;;;;;;;9.77;100.00;97139.69;15298605;19;20089;-50
2024/02/25 15:34:00;;;;;;;0.80;0.80;;;;;;;9.87;100.00;97140.25;15268335;19;20010;-48
2024/02/25 15:39:24;;;;;;;0.52;0.32;;;;;;;10.24;100.00;97130.31;15292250;19;20019;-50
2024/02/25 15:44:53;;;;;;;0.20;0.20;;;;;;;10.22;100.00;97132.38;15291458;19;20090;-48
2024/02/25 15:50:19;;;;;;;0.77;0.30;;;;;;;10.39;100.00;97122.22;15290598;19;20388;-48
2024/02/25 15:55:44;;;;;;;0.20;0.20;;;;;;;10.44;100.00;97119.78;15283828;19;20024;-50
2024/02/25 16:01:19;;;;;;;0.20;0.20;;;;;;;10.32;100.00;97105.13;15289076;19;20015;-48
2024/02/25 16:06:44;;;;;;;0.13;0.10;;;;;;;10.24;100.00;97103.38;15293418;19;20077;-48
2024/02/25 16:12:10;;;;;;;0.20;0.20;;;;;;;10.27;100.00;97107.56;15292933;19;20018;-50
2024/02/25 16:17:39;;;;;;;0.10;0.10;;;;;;;10.31;100.00;97114.22;15292715;19;20368;-49
2024/02/25 16:23:03;;;;;;;1.65;0.30;;;;;;;10.23;100.00;97117.06;15290574;19;20028;-50
2024/02/25 16:28:27;;;;;;;0.38;0.38;;;;;;;10.17;100.00;97107.88;15288041;19;20359;-51
2024/02/25 16:34:02;;;;;;;0.50;0.50;;;;;;;10.04;100.00;97105.91;15282797;19;20014;-84
2024/02/25 16:39:28;;;;;;;0.93;0.80;;;;;;;9.77;100.00;97115.50;15295225;19;20025;-84
2024/02/25 16:44:52;;;;;;;0.93;0.90;;;;;;;9.36;100.00;97106.94;15291402;19;20480;-84
2024/02/25 16:50:19;;;;;;;1.10;1.10;;;;;;;9.03;100.00;97111.81;15299021;19;20032;-88
2024/02/25 16:55:45;;;;;;;1.35;1.00;;;;;;;8.68;100.00;97106.13;15292575;19;20038;-85
2024/02/25 17:01:10;;;;;;;0.57;0.40;;;;;;;8.36;100.00;97108.03;15300674;19;20425;-84
2024/02/25 17:06:38;;;;;;;0.50;0.50;;;;;;;8.13;100.00;97111.56;15297040;19;20466;-85
2024/02/25 17:12:04;;;;;;;0.30;0.30;;;;;;;7.88;100.00;97114.41;15290732;19;20096;-84
2024/02/25 17:17:29;;;;;;;0.45;0.40;;;;;;;7.71;100.00;97116.31;15290828;19;20348;-85
2024/02/25 17:22:56;;;;;;;0.40;0.40;;;;;;;7.46;100.00;97112.94;15299612;19;20021;-85
2024/02/25 17:28:22;;;;;;;1.25;0.60;;;;;;;7.27;100.00;97106.13;15300279;19;20010;-83
2024/02/25 17:33:47;;;;;;;0.80;0.80;;;;;;;7.01;100.00;97105.34;15294524;19;20028;-84
2024/02/25 17:39:14;;;;;;;1.77;0.82;;;;;;;6.88;100.00;97097.88;15292201;19;20021;-84
2024/02/25 17:44:40;;;;;;;0.40;0.40;;;;;;;6.80;100.00;97105.94;15266299;19;20014;-84
2024/02/25 17:50:04;;;;;;;0.50;0.50;;;;;;;6.75;100.00;97098.41;15297670;19;20054;-84
2024/02/25 17:55:32;;;;;;;0.70;0.70;;;;;;;6.73;100.00;97105.75;15296198;19;20017;-85
2024/02/25 18:00:59;;;;;;;0.70;0.70;;;;;;;6.72;100.00;97097.88;15303767;19;20018;-85
2024/02/25 18:06:26;;;;;;;0.75;0.60;;;;;;;6.65;100.00;97091.56;15360681;19;20030;-80
2024/02/25 18:11:57;;;;;;;0.93;0.60;;;;;;;6.61;100.00;97085.72;15386631;19;20018;-83
2024/02/25 18:17:27;;;;;;;0.75;0.60;;;;;;;6.60;100.00;97094.75;15379963;19;20014;-82
2024/02/25 18:22:52;;;;;;;2.10;1.10;;;;;;;6.52;100.00;97090.22;15384488;19;20010;-83
2024/02/25 18:28:21;;;;;;;1.55;1.10;;;;;;;6.43;100.00;97078.69;15392163;19;20018;-81
2024/02/25 18:33:46;;;;;;;1.80;1.33;;;;;;;6.32;100.00;97085.22;15384232;19;20007;-82
2024/02/25 18:39:11;;;;;;;1.52;1.20;;;;;;;6.06;100.00;97085.38;15317969;19;20530;-85
2024/02/25 18:44:41;;;;;;;2.00;1.20;;;;;;;5.85;100.00;97072.47;15315891;19;20022;-84
2024/02/25 18:55:52;;;;;;;1.30;0.70;;;;;;;5.73;100.00;97077.28;15317817;19;20007;-85
2024/02/25 19:01:20;;;;;;;0.60;0.60;;;;;;;5.69;100.00;97065.25;15312079;19;20011;-85
2024/02/25 19:06:46;;;;;;;0.70;0.70;;;;;;;5.67;100.00;97064.59;15361511;19;20007;-82
2024/02/25 19:18:10;;;;;;;0.45;0.45;;;;;;;5.75;100.00;97053.06;15363772;19;19987;-86
2024/02/25 19:29:26;;;;;;;0.77;0.68;;;;;;;5.64;100.00;97055.06;15357129;19;20027;-87
2024/02/25 19:45:55;;;;;;;0.80;0.80;;;;;;;5.23;100.00;97053.09;15357325;19;20014;-87
2024/02/25 19:51:22;;;;;;;1.27;0.90;;;;;;;5.15;100.00;97042.38;15348007;19;20114;-83
2024/02/25 19:56:46;;;;;;;1.20;1.00;;;;;;;5.08;100.00;97036.03;15340938;19;20014;-84
2024/02/25 20:02:17;;;;;;;1.33;1.10;;;;;;;5.01;100.00;97033.16;15299602;19;20023;-84
2024/02/25 20:07:41;;;;;;;1.20;1.00;;;;;;;4.98;100.00;97029.97;15296767;19;20029;-84
2024/02/25 20:13:06;;;;;;;1.48;1.23;;;;;;;4.90;100.00;97031.59;15294263;19;20014;-85
2024/02/25 20:18:34;;;;;;;1.40;1.30;;;;;;;4.77;100.00;97028.53;15296959;19;20024;-83
2024/02/25 20:24:00;;;;;;;1.45;1.35;;;;;;;4.57;100.00;97026.09;15291071;19;20026;-85
2024/02/25 20:29:25;;;;;;;1.45;1.20;;;;;;;4.48;100.00;97041.22;15293012;19;20014;-84
2024/02/25 20:35:00;;;;;;;1.75;1.00;;;;;;;4.39;100.00;97041.34;15278772;19;20018;-84
2024/02/25 20:40:26;;;;;;;1.30;1.00;;;;;;;4.32;100.00;97038.44;15276283;19;20019;-85
2024/02/25 20:45:50;;;;;;;0.70;0.70;;;;;;;4.27;100.00;97040.72;15289849;19;20019;-85
2024/02/25 20:51:17;;;;;;;0.70;0.70;;;;;;;4.25;100.00;97026.72;15290037;19;20094;-83
2024/02/25 20:56:42;;;;;;;1.20;0.80;;;;;;;4.21;100.00;97022.72;15297260;19;20025;-85
2024/02/25 21:02:07;;;;;;;1.15;1.00;;;;;;;4.15;100.00;97030.31;15307280;19;20011;-83
2024/02/25 21:07:35;;;;;;;1.88;1.00;;;;;;;4.13;100.00;97026.16;15286222;19;20047;-86
2024/02/25 21:13:02;;;;;;;1.30;1.00;;;;;;;4.10;100.00;97021.13;15288405;19;20021;-86
2024/02/25 21:18:27;;;;;;;1.33;1.23;;;;;;;4.05;100.00;97029.59;15295648;19;20443;-82
2024/02/25 21:23:57;;;;;;;1.52;1.00;;;;;;;3.97;100.00;97011.69;15287032;19;20090;-83
2024/02/25 21:29:21;;;;;;;1.35;1.10;;;;;;;3.96;100.00;97010.03;15285638;19;20026;-83
2024/02/25 21:34:52;;;;;;;1.48;0.90;;;;;;;4.00;100.00;97013.22;15296399;19;20011;-85
2024/02/25 21:40:19;;;;;;;1.20;1.10;;;;;;;4.00;100.00;97007.88;15300498;19;20042;-85
2024/02/25 21:45:47;;;;;;;1.65;0.90;;;;;;;3.99;100.00;97003.56;15298908;19;20039;-84
2024/02/25 21:51:12;;;;;;;1.38;1.00;;;;;;;3.99;100.00;97001.72;15309926;19;20090;-84
2024/02/25 21:56:39;;;;;;;1.10;1.00;;;;;;;4.01;100.00;96990.91;15305576;19;20019;-84
2024/02/25 22:02:04;;;;;;;0.98;0.90;;;;;;;3.99;100.00;96996.41;15286476;19;20796;-84
2024/02/25 22:07:28;;;;;;;1.70;1.20;;;;;;;3.98;100.00;96997.38;15297812;19;20018;-83
2024/02/25 22:12:56;;;;;;;2.33;1.45;;;;;;;3.97;100.00;96994.88;15301563;19;20021;-85
2024/02/25 22:18:21;;;;;;;1.80;1.60;;;;;;;3.96;100.00;96999.38;15303700;19;20093;-83
2024/02/25 22:23:46;;;;;;;2.42;1.80;;;;;;;3.96;100.00;96996.69;15304266;19;20029;-86
2024/02/25 22:29:13;;;;;;;2.38;1.80;;;;;;;3.94;100.00;96984.53;15338419;19;20018;-86
2024/02/25 22:34:47;;;;;;;2.85;2.22;;;;;;;3.92;100.00;96991.84;15308985;19;20086;-86
2024/02/25 22:40:12;;;;;;;2.30;2.08;;;;;;;3.85;100.00;96994.28;15318991;19;20018;-84
2024/02/25 22:45:40;;;;;;;2.80;1.80;;;;;;;3.72;100.00;96985.84;15313009;19;20029;-85
2024/02/25 22:51:07;;;;;;;2.55;2.30;;;;;;;3.60;100.00;96988.75;15309559;19;20010;-84
2024/02/25 22:56:31;;;;;;;4.00;2.28;;;;;;;3.49;100.00;96991.63;15310031;19;20025;-84
2024/02/25 23:01:58;;;;;;;3.00;2.42;;;;;;;3.48;100.00;96992.63;15299057;19;20033;-83
2024/02/25 23:07:23;;;;;;;3.10;2.80;;;;;;;3.48;100.00;96989.97;15293772;19;20031;-82
2024/02/25 23:12:49;;;;;;;3.33;3.03;;;;;;;3.49;100.00;96986.31;15299150;19;20037;-83
2024/02/25 23:18:16;;;;;;;3.75;3.38;;;;;;;3.51;100.00;96990.50;15292981;19;20047;-85
2024/02/25 23:23:41;;;;;;;4.78;3.72;;;;;;;3.50;100.00;96983.50;15290649;19;20026;-85
2024/02/25 23:29:05;;;;;;;5.68;4.50;;;;;;;3.49;100.00;96971.19;15298860;19;20015;-86
2024/02/25 23:34:39;;;;;;;5.20;4.70;;;;;;;3.50;100.00;96972.88;15294830;19;20032;-86
2024/02/25 23:40:04;;;;;;;6.22;4.97;;;;;;;3.51;100.00;96966.56;15304013;19;20013;-83
2024/02/25 23:45:28;;;;;;;5.93;5.28;;;;;;;3.51;100.00;96973.69;15307222;19;20359;-85
2024/02/25 23:50:56;;;;;;;6.85;6.15;;;;;;;3.48;100.00;96976.66;15301221;19;20447;-84
2024/02/25 23:56:21;;;;;;;7.22;6.47;;;;;;;3.43;100.00;96971.78;15330290;19;20662;-82
